createdAt,value
2019-05-09T00:00:11.478Z,87.60
2019-05-09T00:02:44.531Z,89.60
2019-05-09T00:06:04.598Z,89.90
2019-05-09T00:08:35.852Z,88.90
2019-05-09T00:11:09.230Z,86.20
2019-05-09T00:13:43.484Z,85.20
2019-05-09T00:16:23.487Z,86.40
2019-05-09T00:18:59.217Z,84.60
2019-05-09T00:24:21.079Z,84.20
2019-05-09T00:29:52.991Z,81.90
2019-05-09T00:35:33.803Z,84.40
2019-05-09T00:38:04.539Z,87.80
2019-05-09T00:40:55.933Z,90.90
2019-05-09T00:43:26.754Z,92.30
2019-05-09T00:46:55.868Z,93.60
2019-05-09T00:49:34.117Z,93.80
2019-05-09T00:54:50.099Z,94.80
2019-05-09T01:00:25.507Z,94.70
2019-05-09T01:02:58.321Z,95.50
2019-05-09T01:06:07.866Z,95.10
2019-05-09T01:08:44.921Z,95.10
2019-05-09T01:14:09.414Z,95.10
2019-05-09T01:19:30.842Z,94.20
2019-05-09T01:24:56.519Z,95.20
2019-05-09T01:27:27.122Z,95.60
2019-05-09T01:30:07.595Z,95.00
2019-05-09T01:36:19.769Z,95.10
2019-05-09T01:38:56.408Z,96.50
2019-05-09T01:41:30.981Z,95.00
2019-05-09T01:44:10.792Z,96.30
2019-05-09T01:46:45.533Z,96.90
2019-05-09T01:49:23.251Z,98.20
2019-05-09T01:51:54.211Z,98.50
2019-05-09T01:54:33.410Z,97.90
2019-05-09T01:57:18.351Z,96.90
2019-05-09T01:59:53.227Z,96.80
2019-05-09T02:02:28.856Z,94.90
2019-05-09T02:05:04.165Z,95.10
2019-05-09T02:07:40.199Z,95.30
2019-05-09T02:10:19.610Z,96.30
2019-05-09T02:12:57.569Z,95.70
2019-05-09T02:15:28.615Z,95.60
2019-05-09T02:18:15.653Z,95.60
2019-05-09T02:20:53.277Z,95.60
2019-05-09T02:23:26.311Z,95.70
2019-05-09T02:25:56.942Z,96.00
2019-05-09T02:28:34.116Z,96.00
2019-05-09T02:31:15.724Z,95.70
2019-05-09T02:33:49.310Z,96.10
2019-05-09T02:36:22.705Z,96.20
2019-05-09T02:38:54.092Z,96.60
2019-05-09T02:41:31.122Z,96.70
2019-05-09T02:44:03.772Z,97.20
2019-05-09T02:46:42.001Z,97.50
2019-05-09T02:49:19.134Z,97.20
2019-05-09T02:51:52.293Z,96.60
2019-05-09T02:54:25.411Z,96.70
2019-05-09T02:57:00.883Z,96.70
2019-05-09T02:59:31.875Z,95.30
2019-05-09T03:02:10.077Z,94.40
2019-05-09T03:04:41.034Z,94.20
2019-05-09T03:07:13.188Z,94.90
2019-05-09T03:09:48.179Z,96.20
2019-05-09T03:12:30.541Z,98.00
2019-05-09T03:14:52.677Z,98.90
2019-05-09T03:17:28.052Z,99.60
2019-05-09T03:20:01.597Z,99.90
2019-05-09T03:22:33.496Z,99.90
2019-05-09T03:25:12.012Z,99.90
2019-05-09T03:27:43.468Z,99.90
2019-05-09T03:30:29.507Z,99.90
2019-05-09T03:33:01.169Z,99.90
2019-05-09T03:35:33.429Z,99.80
2019-05-09T03:38:17.847Z,99.90
2019-05-09T03:40:48.856Z,99.60
2019-05-09T03:43:18.379Z,99.50
2019-05-09T03:45:52.294Z,99.70
2019-05-09T03:48:34.277Z,98.30
2019-05-09T03:51:08.127Z,97.30
2019-05-09T03:53:43.435Z,97.20
2019-05-09T03:56:30.662Z,97.40
2019-05-09T03:59:08.599Z,98.30
2019-05-09T04:01:41.998Z,98.00
2019-05-09T04:04:12.066Z,97.50
2019-05-09T04:06:50.413Z,95.70
2019-05-09T04:09:21.802Z,95.40
2019-05-09T04:11:53.961Z,94.90
2019-05-09T04:14:28.219Z,94.50
2019-05-09T04:17:04.908Z,94.30
2019-05-09T04:19:40.428Z,93.80
2019-05-09T04:22:09.819Z,92.90
2019-05-09T04:24:47.348Z,93.60
2019-05-09T04:27:22.500Z,93.80
2019-05-09T04:29:52.815Z,93.00
2019-05-09T04:32:28.361Z,92.60
2019-05-09T04:35:08.130Z,93.20
2019-05-09T04:37:40.775Z,93.20
2019-05-09T04:40:17.736Z,92.70
2019-05-09T04:42:47.409Z,91.50
2019-05-09T04:45:22.927Z,91.40
2019-05-09T04:47:57.654Z,90.70
2019-05-09T04:50:28.956Z,90.50
2019-05-09T04:53:01.909Z,89.90
2019-05-09T04:55:34.393Z,84.80
2019-05-09T04:58:09.095Z,84.20
2019-05-09T05:00:57.587Z,84.90
2019-05-09T05:03:32.146Z,83.40
2019-05-09T05:06:13.123Z,84.80
2019-05-09T05:08:42.232Z,85.80
2019-05-09T05:11:13.394Z,85.40
2019-05-09T05:13:48.612Z,86.20
2019-05-09T05:16:23.750Z,86.20
2019-05-09T05:18:58.619Z,83.90
2019-05-09T05:21:29.376Z,77.30
2019-05-09T05:24:04.171Z,77.50
